createdAt,value
2023-05-09T00:01:30.273Z,85.80
2023-05-09T00:03:59.283Z,85.50
2023-05-09T00:06:29.216Z,85.70
2023-05-09T00:08:57.398Z,86.10
2023-05-09T00:11:25.508Z,86.70
2023-05-09T00:13:53.760Z,86.80
2023-05-09T00:16:24.278Z,87.30
2023-05-09T00:18:52.950Z,86.90
2023-05-09T00:21:21.090Z,86.20
2023-05-09T00:23:50.615Z,85.50
2023-05-09T00:26:18.797Z,86.00
2023-05-09T00:28:47.985Z,85.30
2023-05-09T00:31:16.321Z,85.50
2023-05-09T00:33:44.541Z,85.40
2023-05-09T00:36:12.701Z,85.20
2023-05-09T00:38:40.837Z,85.10
2023-05-09T00:41:10.378Z,85.30
2023-05-09T00:43:38.438Z,85.10
2023-05-09T00:46:06.970Z,84.80
2023-05-09T00:48:35.374Z,84.90
2023-05-09T00:51:05.111Z,85.40
2023-05-09T00:53:33.537Z,85.30
2023-05-09T00:56:02.272Z,85.30
2023-05-09T00:58:31.943Z,85.50
2023-05-09T01:01:02.210Z,86.70
2023-05-09T01:03:31.188Z,86.20
2023-05-09T01:06:07.018Z,85.90
2023-05-09T01:08:46.252Z,85.70
2023-05-09T01:11:21.886Z,85.90
2023-05-09T01:14:04.518Z,86.10
2023-05-09T01:16:37.660Z,86.40
2023-05-09T01:19:21.525Z,86.40
2023-05-09T01:21:52.678Z,86.60
2023-05-09T01:24:44.730Z,86.00
2023-05-09T01:27:23.588Z,85.90
2023-05-09T01:29:58.666Z,86.40
2023-05-09T01:32:29.135Z,85.80
2023-05-09T01:35:00.334Z,85.80
2023-05-09T01:37:32.541Z,85.80
2023-05-09T01:40:06.082Z,86.20
2023-05-09T01:42:41.125Z,86.20
2023-05-09T01:45:13.979Z,87.10
2023-05-09T01:47:43.992Z,86.20
2023-05-09T01:50:13.828Z,86.10
2023-05-09T01:52:44.110Z,86.90
2023-05-09T01:55:13.703Z,88.20
2023-05-09T01:57:43.172Z,87.70
2023-05-09T02:00:14.903Z,88.00
2023-05-09T02:02:44.168Z,88.50
2023-05-09T02:05:13.482Z,88.80
2023-05-09T02:07:43.127Z,88.90
2023-05-09T02:10:13.364Z,88.60
2023-05-09T02:12:41.793Z,88.30
2023-05-09T02:15:12.633Z,88.40
2023-05-09T02:17:43.192Z,88.10
2023-05-09T02:20:12.184Z,87.90
2023-05-09T02:22:42.031Z,87.60
2023-05-09T02:25:15.206Z,87.50
2023-05-09T02:27:45.644Z,87.30
2023-05-09T02:30:20.623Z,87.30
2023-05-09T02:32:51.656Z,87.60
2023-05-09T02:35:21.652Z,86.90
2023-05-09T02:37:50.436Z,86.90
2023-05-09T02:40:20.501Z,87.60
2023-05-09T02:42:49.011Z,86.70
2023-05-09T02:45:18.717Z,86.70
2023-05-09T02:47:46.899Z,86.70
2023-05-09T02:50:15.272Z,86.90
2023-05-09T02:52:44.760Z,87.00
2023-05-09T02:55:13.133Z,86.50
2023-05-09T02:57:43.745Z,86.90
2023-05-09T03:00:13.236Z,88.00
2023-05-09T03:02:42.805Z,88.40
2023-05-09T03:05:17.729Z,89.20
2023-05-09T03:07:46.097Z,88.60
2023-05-09T03:10:14.647Z,88.50
2023-05-09T03:12:44.749Z,88.70
2023-05-09T03:15:13.954Z,88.30
2023-05-09T03:17:45.114Z,88.80
2023-05-09T03:20:13.333Z,88.50
2023-05-09T03:22:41.548Z,88.30
2023-05-09T03:25:12.042Z,88.20
2023-05-09T03:27:40.477Z,88.20
2023-05-09T03:30:13.880Z,88.10
2023-05-09T03:32:45.418Z,88.00
2023-05-09T03:35:13.785Z,88.30
2023-05-09T03:37:42.119Z,88.20
2023-05-09T03:40:11.650Z,88.90
2023-05-09T03:42:47.812Z,89.00
2023-05-09T03:45:16.135Z,89.60
2023-05-09T03:47:47.819Z,89.60
2023-05-09T03:50:17.006Z,89.00
2023-05-09T03:52:46.062Z,88.60
2023-05-09T03:55:16.995Z,88.40
2023-05-09T03:57:45.416Z,88.40
2023-05-09T04:00:14.366Z,88.40
2023-05-09T04:02:42.800Z,88.50
2023-05-09T04:05:21.637Z,88.60
2023-05-09T04:07:50.508Z,88.50
2023-05-09T04:10:19.879Z,89.00
2023-05-09T04:12:48.047Z,89.60
2023-05-09T04:15:18.620Z,89.70
2023-05-09T04:17:46.866Z,89.90
2023-05-09T04:20:15.214Z,90.00
2023-05-09T04:22:47.079Z,90.60
2023-05-09T04:25:17.478Z,90.70
2023-05-09T04:27:47.231Z,91.20
2023-05-09T04:30:17.113Z,91.60
2023-05-09T04:32:46.890Z,91.60
2023-05-09T04:35:17.460Z,91.80
2023-05-09T04:37:51.351Z,91.90
2023-05-09T04:40:19.823Z,92.10
2023-05-09T04:42:55.134Z,91.40
2023-05-09T04:45:27.059Z,91.90
2023-05-09T04:47:55.833Z,91.40
2023-05-09T04:50:24.715Z,90.60
2023-05-09T04:52:54.464Z,90.80
2023-05-09T04:55:22.769Z,90.50
2023-05-09T04:57:52.149Z,90.60
2023-05-09T05:00:21.410Z,91.80
2023-05-09T05:02:50.772Z,91.60
2023-05-09T05:05:24.348Z,91.70
2023-05-09T05:07:55.117Z,91.60
2023-05-09T05:10:27.621Z,91.60
2023-05-09T05:13:03.831Z,92.50
2023-05-09T05:15:32.066Z,92.30
2023-05-09T05:18:00.952Z,92.30
2023-05-09T05:20:34.686Z,92.10
2023-05-09T05:23:04.417Z,91.40
2023-05-09T05:25:32.576Z,91.00
2023-05-09T05:28:02.626Z,91.60
2023-05-09T05:30:33.509Z,90.30
2023-05-09T05:33:03.322Z,90.20
2023-05-09T05:35:32.328Z,89.50
2023-05-09T05:38:01.018Z,89.20
2023-05-09T05:40:31.159Z,89.20
2023-05-09T05:43:02.908Z,89.20
2023-05-09T05:45:32.778Z,89.20
2023-05-09T05:48:03.953Z,89.10
2023-05-09T05:50:33.384Z,89.30
2023-05-09T05:53:01.775Z,89.50
2023-05-09T05:55:31.831Z,89.00
2023-05-09T05:58:00.116Z,89.10
2023-05-09T06:00:28.552Z,89.90
2023-05-09T06:03:03.563Z,89.10
2023-05-09T06:05:45.212Z,89.10
2023-05-09T06:08:13.662Z,89.00
2023-05-09T06:10:43.261Z,89.20
2023-05-09T06:13:12.489Z,89.40
2023-05-09T06:15:45.087Z,89.20
2023-05-09T06:18:13.250Z,89.10
2023-05-09T06:20:41.380Z,89.50
2023-05-09T06:23:09.924Z,89.80
2023-05-09T06:25:38.024Z,89.90
2023-05-09T06:28:07.768Z,90.20
2023-05-09T06:30:36.210Z,90.00
2023-05-09T06:33:04.442Z,90.30
2023-05-09T06:35:32.846Z,90.60
2023-05-09T06:38:01.018Z,91.00
2023-05-09T06:40:29.103Z,90.60
2023-05-09T06:42:57.185Z,90.40
2023-05-09T06:45:27.282Z,90.70
2023-05-09T06:47:55.631Z,91.30
2023-05-09T06:50:23.830Z,91.70
2023-05-09T06:52:51.892Z,91.60
2023-05-09T06:55:20.160Z,91.80
2023-05-09T06:57:48.494Z,91.70
2023-05-09T07:00:17.606Z,91.30
2023-05-09T07:02:47.170Z,91.40
2023-05-09T07:05:16.424Z,91.00
2023-05-09T07:07:44.738Z,90.90
2023-05-09T07:10:13.371Z,89.20
2023-05-09T07:12:42.017Z,88.00
2023-05-09T07:15:11.551Z,87.30
2023-05-09T07:17:39.706Z,86.50
2023-05-09T07:20:10.322Z,87.50
2023-05-09T07:22:38.525Z,87.80
2023-05-09T07:25:08.915Z,85.50
2023-05-09T07:27:37.482Z,86.40
2023-05-09T07:30:06.468Z,86.10
2023-05-09T07:32:34.943Z,86.60
2023-05-09T07:35:03.334Z,87.00
2023-05-09T07:37:32.955Z,85.80
2023-05-09T07:40:01.720Z,84.70
2023-05-09T07:42:30.394Z,85.70
2023-05-09T07:44:59.255Z,83.50
2023-05-09T07:47:27.702Z,83.80
2023-05-09T07:49:56.010Z,83.60
2023-05-09T07:52:24.232Z,84.10
2023-05-09T07:54:54.797Z,84.10
2023-05-09T07:57:23.347Z,84.30
2023-05-09T07:59:51.456Z,84.40
2023-05-09T08:02:19.849Z,84.40
2023-05-09T08:04:48.825Z,85.00
2023-05-09T08:07:17.585Z,85.90
2023-05-09T08:09:45.703Z,85.10
2023-05-09T08:12:15.281Z,88.90
2023-05-09T08:14:43.411Z,85.60
2023-05-09T08:17:11.762Z,85.70
2023-05-09T08:19:39.918Z,83.60
2023-05-09T08:22:08.088Z,82.30
2023-05-09T08:24:36.226Z,81.90
2023-05-09T08:27:04.479Z,78.90
2023-05-09T08:29:34.029Z,80.90
2023-05-09T08:32:02.158Z,78.90
2023-05-09T08:34:31.390Z,79.90
2023-05-09T08:36:59.574Z,77.90
2023-05-09T08:39:27.724Z,78.10
2023-05-09T08:41:59.688Z,78.00
2023-05-09T08:44:29.841Z,78.60
2023-05-09T08:47:01.745Z,76.30
2023-05-09T08:49:30.356Z,75.30
2023-05-09T08:51:59.031Z,75.00
2023-05-09T08:54:27.253Z,74.30
2023-05-09T08:56:55.919Z,76.20
2023-05-09T08:59:24.332Z,74.10
2023-05-09T09:01:54.513Z,72.50
2023-05-09T09:04:24.274Z,73.50
2023-05-09T09:06:53.708Z,74.40
2023-05-09T09:09:22.297Z,76.20
2023-05-09T09:11:50.736Z,76.00
2023-05-09T09:14:25.681Z,75.50
2023-05-09T09:16:55.720Z,75.90
2023-05-09T09:19:31.018Z,75.00
2023-05-09T09:22:01.139Z,73.40
2023-05-09T09:24:30.866Z,74.90
2023-05-09T09:26:58.917Z,75.30
2023-05-09T09:29:28.774Z,75.50
2023-05-09T09:31:56.969Z,74.80
2023-05-09T09:34:26.839Z,75.90
2023-05-09T09:36:55.152Z,76.60
2023-05-09T09:39:23.382Z,75.30
2023-05-09T09:41:51.752Z,74.90
2023-05-09T09:44:21.545Z,76.00
2023-05-09T09:46:51.527Z,75.80
2023-05-09T09:49:20.962Z,75.30
2023-05-09T09:51:53.370Z,73.40
2023-05-09T09:54:21.978Z,73.50
2023-05-09T09:56:51.898Z,73.50
2023-05-09T09:59:21.625Z,73.00
2023-05-09T10:02:02.315Z,73.80
2023-05-09T10:04:34.588Z,74.40
2023-05-09T10:07:05.994Z,74.70
2023-05-09T10:09:35.436Z,74.00
2023-05-09T10:12:05.180Z,73.70
2023-05-09T10:14:35.746Z,74.00
2023-05-09T10:17:05.841Z,73.30
2023-05-09T10:19:34.364Z,73.20
2023-05-09T10:22:05.341Z,74.40
2023-05-09T10:24:40.430Z,75.20
2023-05-09T10:27:12.879Z,74.30
2023-05-09T10:29:46.384Z,73.10
2023-05-09T10:32:20.550Z,73.00
2023-05-09T10:34:51.738Z,73.90
2023-05-09T10:37:22.469Z,73.30
2023-05-09T10:39:53.526Z,72.80
2023-05-09T10:42:23.008Z,73.20
2023-05-09T10:44:51.191Z,74.50
2023-05-09T10:47:20.175Z,74.60
2023-05-09T10:49:49.894Z,71.70
2023-05-09T10:52:18.907Z,72.70
2023-05-09T10:55:00.795Z,71.20
2023-05-09T10:57:29.823Z,71.00
2023-05-09T10:59:58.642Z,69.00
2023-05-09T11:02:29.570Z,68.70
2023-05-09T11:05:18.337Z,70.10
2023-05-09T11:07:47.774Z,68.20
2023-05-09T11:10:18.942Z,67.00
2023-05-09T11:12:57.943Z,65.20
2023-05-09T11:15:27.560Z,66.50
2023-05-09T11:18:07.387Z,65.90
2023-05-09T11:20:36.581Z,63.90
2023-05-09T11:23:06.105Z,64.40
2023-05-09T11:25:36.167Z,64.00
2023-05-09T11:28:04.359Z,66.30
2023-05-09T11:30:41.725Z,66.50
2023-05-09T11:33:23.958Z,66.90
2023-05-09T11:36:20.027Z,67.50
2023-05-09T11:38:49.046Z,65.20
2023-05-09T11:41:18.577Z,65.40
2023-05-09T11:43:46.847Z,62.80
2023-05-09T11:46:15.072Z,61.90
2023-05-09T11:48:43.236Z,62.00
2023-05-09T11:51:19.025Z,64.60
2023-05-09T11:53:50.521Z,65.30
2023-05-09T11:56:20.064Z,64.10
2023-05-09T11:58:50.732Z,61.30
2023-05-09T12:01:19.659Z,61.10
2023-05-09T12:03:48.115Z,61.20
2023-05-09T12:06:18.262Z,63.90
2023-05-09T12:08:47.448Z,62.80
2023-05-09T12:11:16.215Z,64.40
2023-05-09T12:13:50.398Z,63.80
2023-05-09T12:16:20.292Z,61.00
2023-05-09T12:18:49.875Z,62.40
2023-05-09T12:21:18.269Z,60.80
2023-05-09T12:23:49.839Z,60.70
2023-05-09T12:26:19.336Z,59.80
2023-05-09T12:28:49.412Z,60.50
2023-05-09T12:31:18.580Z,61.10
2023-05-09T12:33:47.156Z,60.20
2023-05-09T12:36:16.133Z,61.60
2023-05-09T12:38:54.728Z,59.70
2023-05-09T12:41:37.095Z,60.60
2023-05-09T12:44:11.202Z,60.40
2023-05-09T12:46:39.399Z,59.60
2023-05-09T12:49:07.663Z,59.10
2023-05-09T12:51:35.793Z,58.90
2023-05-09T12:54:05.284Z,59.60
2023-05-09T12:56:36.302Z,59.10
2023-05-09T12:59:04.482Z,60.10
2023-05-09T13:01:36.832Z,58.20
2023-05-09T13:04:07.605Z,60.50
2023-05-09T13:06:36.386Z,58.50
2023-05-09T13:09:06.635Z,58.10
2023-05-09T13:11:35.384Z,58.00
2023-05-09T13:14:04.490Z,56.20
2023-05-09T13:16:34.141Z,57.20
2023-05-09T13:19:02.704Z,57.00
2023-05-09T13:21:31.008Z,55.80
2023-05-09T13:23:59.193Z,55.20
2023-05-09T13:26:27.719Z,54.60
2023-05-09T13:28:56.021Z,56.50
2023-05-09T13:31:24.269Z,57.00
2023-05-09T13:33:54.344Z,57.30
2023-05-09T13:36:22.675Z,58.10
2023-05-09T13:38:51.025Z,56.60
2023-05-09T13:41:22.493Z,56.00
2023-05-09T13:43:50.979Z,58.00
2023-05-09T13:46:19.085Z,57.30
2023-05-09T13:48:47.773Z,57.10
2023-05-09T13:51:17.608Z,57.20
2023-05-09T13:53:45.703Z,56.10
2023-05-09T13:56:14.084Z,56.40
2023-05-09T13:58:42.279Z,57.30
2023-05-09T14:01:10.521Z,54.80
2023-05-09T14:03:38.870Z,55.60
2023-05-09T14:06:09.225Z,56.20
2023-05-09T14:08:39.659Z,55.90
2023-05-09T14:11:08.961Z,56.50
2023-05-09T14:13:37.104Z,55.60
2023-05-09T14:16:06.275Z,55.30
2023-05-09T14:18:35.336Z,54.60
2023-05-09T14:21:03.448Z,56.10
2023-05-09T14:23:31.553Z,57.10
2023-05-09T14:26:01.161Z,56.50
2023-05-09T14:28:29.313Z,55.40
2023-05-09T14:30:57.990Z,55.70
2023-05-09T14:33:27.170Z,55.30
2023-05-09T14:35:55.243Z,55.50
2023-05-09T14:38:23.406Z,55.20
2023-05-09T14:40:51.788Z,55.60
2023-05-09T14:43:22.524Z,54.20
2023-05-09T14:45:50.601Z,54.90
2023-05-09T14:48:18.819Z,56.50
2023-05-09T14:50:46.940Z,56.60
2023-05-09T14:53:15.134Z,55.20
2023-05-09T14:55:43.464Z,55.90
2023-05-09T14:58:13.326Z,55.20
2023-05-09T15:00:43.105Z,55.90
2023-05-09T15:03:11.841Z,56.60
2023-05-09T15:05:40.522Z,56.10
2023-05-09T15:08:09.415Z,56.30
2023-05-09T15:10:37.679Z,56.30
2023-05-09T15:13:06.159Z,55.90
2023-05-09T15:15:34.361Z,57.10
2023-05-09T15:18:04.098Z,56.80
2023-05-09T15:20:32.185Z,56.80
2023-05-09T15:23:00.906Z,57.90
2023-05-09T15:25:29.331Z,58.40
2023-05-09T15:27:57.510Z,58.90
2023-05-09T15:30:25.766Z,58.60
2023-05-09T15:32:53.878Z,60.20
2023-05-09T15:35:23.392Z,59.40
2023-05-09T15:37:51.521Z,58.10
2023-05-09T15:40:19.579Z,58.00
2023-05-09T15:42:48.633Z,58.90
2023-05-09T15:45:16.808Z,61.20
2023-05-09T15:47:44.999Z,63.10
2023-05-09T15:50:13.484Z,65.80
2023-05-09T15:52:43.081Z,66.70
2023-05-09T15:55:13.018Z,67.30
2023-05-09T15:57:41.340Z,68.80
2023-05-09T16:00:10.482Z,69.00
2023-05-09T16:02:44.142Z,69.40
2023-05-09T16:05:13.047Z,69.80
2023-05-09T16:07:46.544Z,67.90
2023-05-09T16:10:15.136Z,67.90
2023-05-09T16:12:43.593Z,68.00
2023-05-09T16:15:12.660Z,67.70
2023-05-09T16:17:41.209Z,68.60
2023-05-09T16:20:13.573Z,67.90
2023-05-09T16:22:43.299Z,67.70
2023-05-09T16:25:12.273Z,68.70
2023-05-09T16:27:40.566Z,68.60
2023-05-09T16:30:10.085Z,69.60
2023-05-09T16:32:38.242Z,69.60
2023-05-09T16:35:07.645Z,69.70
2023-05-09T16:37:35.949Z,69.90
2023-05-09T16:40:06.370Z,70.50
2023-05-09T16:42:34.434Z,70.60
2023-05-09T16:45:02.556Z,70.60
2023-05-09T16:47:30.946Z,70.20
2023-05-09T16:49:59.173Z,70.90
2023-05-09T16:52:27.923Z,71.60
2023-05-09T16:54:56.027Z,71.40
2023-05-09T16:57:25.541Z,71.40
2023-05-09T16:59:54.414Z,72.60
2023-05-09T17:02:22.631Z,71.40
2023-05-09T17:04:50.831Z,72.10
2023-05-09T17:07:19.268Z,72.90
2023-05-09T17:09:48.294Z,72.50
2023-05-09T17:12:18.279Z,73.20
2023-05-09T17:14:48.432Z,73.50
2023-05-09T17:17:17.684Z,73.60
2023-05-09T17:19:46.348Z,73.50
2023-05-09T17:22:14.418Z,74.10
2023-05-09T17:24:42.539Z,75.40
2023-05-09T17:27:11.350Z,75.20
2023-05-09T17:29:39.478Z,75.90
2023-05-09T17:32:09.548Z,76.50
2023-05-09T17:34:37.909Z,76.80
2023-05-09T17:37:07.271Z,77.50
2023-05-09T17:39:35.983Z,77.60
2023-05-09T17:42:04.155Z,78.50
2023-05-09T17:44:32.808Z,77.90
2023-05-09T17:47:01.369Z,78.10
2023-05-09T17:49:30.857Z,78.20
2023-05-09T17:51:59.801Z,76.80
2023-05-09T17:54:28.000Z,77.60
2023-05-09T17:56:59.212Z,78.00
2023-05-09T17:59:27.769Z,78.20
2023-05-09T18:01:56.077Z,78.00
2023-05-09T18:04:24.267Z,78.20
2023-05-09T18:06:54.343Z,77.70
2023-05-09T18:09:22.781Z,78.00
2023-05-09T18:11:50.946Z,78.10
2023-05-09T18:14:19.101Z,78.30
2023-05-09T18:16:47.331Z,78.50
2023-05-09T18:19:15.497Z,79.40
2023-05-09T18:21:43.547Z,79.50
2023-05-09T18:24:14.346Z,79.20
2023-05-09T18:26:43.659Z,79.10
2023-05-09T18:29:12.170Z,79.00
2023-05-09T18:31:41.535Z,79.40
2023-05-09T18:34:10.384Z,79.80
2023-05-09T18:36:38.602Z,79.30
2023-05-09T18:39:06.736Z,79.80
2023-05-09T18:41:36.276Z,80.20
2023-05-09T18:44:04.575Z,80.00
2023-05-09T18:46:34.011Z,80.00
2023-05-09T18:49:03.407Z,81.10
2023-05-09T18:51:32.207Z,80.30
2023-05-09T18:54:00.341Z,79.80
2023-05-09T18:56:28.472Z,79.50
2023-05-09T18:58:57.888Z,79.60
2023-05-09T19:01:26.188Z,80.00
2023-05-09T19:03:55.099Z,79.90
2023-05-09T19:06:24.074Z,79.90
2023-05-09T19:08:53.845Z,80.30
2023-05-09T19:11:22.347Z,80.60
2023-05-09T19:13:50.860Z,81.60
2023-05-09T19:16:21.912Z,80.70
2023-05-09T19:18:50.070Z,80.70
2023-05-09T19:21:18.804Z,80.50
2023-05-09T19:23:47.837Z,80.70
2023-05-09T19:26:16.535Z,82.40
2023-05-09T19:28:45.917Z,81.50
2023-05-09T19:31:14.686Z,81.80
2023-05-09T19:33:46.372Z,81.90
2023-05-09T19:36:14.494Z,82.20
2023-05-09T19:38:42.641Z,83.00
2023-05-09T19:41:12.767Z,83.00
2023-05-09T19:43:41.050Z,83.60
2023-05-09T19:46:09.271Z,83.40
2023-05-09T19:48:37.443Z,84.60
2023-05-09T19:51:08.813Z,83.90
2023-05-09T19:53:37.059Z,84.80
2023-05-09T19:56:07.875Z,85.20
2023-05-09T19:58:36.448Z,85.90
2023-05-09T20:01:06.845Z,86.00
2023-05-09T20:03:35.202Z,86.10
2023-05-09T20:06:03.447Z,86.50
2023-05-09T20:08:32.925Z,86.00
2023-05-09T20:11:01.015Z,85.50
2023-05-09T20:13:29.098Z,85.50
2023-05-09T20:15:57.528Z,86.10
2023-05-09T20:18:25.700Z,85.10
2023-05-09T20:20:54.708Z,85.80
2023-05-09T20:23:22.795Z,85.50
2023-05-09T20:25:52.282Z,85.50
2023-05-09T20:28:22.369Z,86.00
2023-05-09T20:30:50.674Z,86.10
2023-05-09T20:33:18.945Z,86.30
2023-05-09T20:35:49.096Z,86.70
2023-05-09T20:38:17.267Z,86.60
2023-05-09T20:40:45.397Z,86.90
2023-05-09T20:43:15.016Z,87.40
2023-05-09T20:45:43.443Z,88.00
2023-05-09T20:48:12.336Z,88.40
2023-05-09T20:50:40.386Z,88.30
2023-05-09T20:53:08.478Z,88.90
2023-05-09T20:55:36.568Z,88.70
2023-05-09T20:58:04.653Z,88.80
2023-05-09T21:00:34.285Z,88.90
2023-05-09T21:03:02.519Z,88.50
2023-05-09T21:05:30.707Z,88.80
2023-05-09T21:07:58.813Z,89.80
2023-05-09T21:10:26.944Z,90.10
2023-05-09T21:12:55.093Z,91.60
2023-05-09T21:15:23.312Z,90.80
2023-05-09T21:17:53.017Z,90.80
2023-05-09T21:20:21.255Z,91.00
2023-05-09T21:22:49.710Z,91.10
2023-05-09T21:25:18.415Z,91.40
2023-05-09T21:27:46.777Z,91.90
2023-05-09T21:30:15.482Z,91.70
2023-05-09T21:32:43.838Z,92.00
2023-05-09T21:35:14.602Z,92.20
2023-05-09T21:37:42.692Z,92.00
2023-05-09T21:40:12.389Z,91.80
2023-05-09T21:42:41.206Z,91.80
2023-05-09T21:45:10.295Z,92.30
2023-05-09T21:47:39.624Z,92.20
2023-05-09T21:50:08.652Z,92.10
2023-05-09T21:52:38.233Z,92.10
2023-05-09T21:55:06.889Z,92.20
2023-05-09T21:57:34.997Z,91.90
2023-05-09T22:00:05.358Z,92.20
2023-05-09T22:02:42.934Z,92.30
2023-05-09T22:05:11.511Z,92.20
2023-05-09T22:07:41.478Z,92.30
2023-05-09T22:10:10.744Z,92.40
2023-05-09T22:12:38.890Z,92.60
2023-05-09T22:15:08.748Z,91.90
2023-05-09T22:17:37.132Z,91.40
2023-05-09T22:20:06.251Z,91.50
2023-05-09T22:22:34.459Z,91.70
2023-05-09T22:25:04.918Z,91.50
2023-05-09T22:27:33.096Z,91.80
2023-05-09T22:30:01.439Z,92.10
2023-05-09T22:32:29.843Z,91.70
2023-05-09T22:34:57.981Z,90.00
2023-05-09T22:37:26.232Z,90.30
2023-05-09T22:39:54.367Z,90.50
2023-05-09T22:42:23.775Z,90.40
2023-05-09T22:44:52.822Z,90.70
2023-05-09T22:47:20.971Z,90.50
2023-05-09T22:49:50.415Z,91.70
2023-05-09T22:52:18.622Z,90.90
2023-05-09T22:54:46.688Z,89.70
2023-05-09T22:57:17.708Z,89.50
2023-05-09T22:59:47.462Z,90.00
2023-05-09T23:02:15.618Z,90.60
2023-05-09T23:04:43.748Z,91.20
2023-05-09T23:07:12.083Z,90.00
2023-05-09T23:09:40.907Z,89.80
2023-05-09T23:12:10.780Z,89.80
2023-05-09T23:14:39.308Z,89.50
2023-05-09T23:17:08.876Z,88.90
2023-05-09T23:19:37.354Z,89.10
2023-05-09T23:22:05.428Z,89.00
2023-05-09T23:24:33.584Z,89.00
2023-05-09T23:27:02.502Z,88.30
2023-05-09T23:29:30.636Z,87.80
2023-05-09T23:31:58.939Z,87.60
2023-05-09T23:34:29.422Z,87.80
2023-05-09T23:36:57.506Z,88.30
2023-05-09T23:39:25.567Z,88.00
2023-05-09T23:41:53.774Z,88.60
2023-05-09T23:44:21.912Z,88.20
2023-05-09T23:46:50.027Z,89.20
2023-05-09T23:49:18.258Z,88.60
2023-05-09T23:51:47.901Z,88.80
2023-05-09T23:54:17.097Z,88.90
2023-05-09T23:56:45.200Z,88.70
2023-05-09T23:59:13.440Z,88.60
